createdAt,value
2022-10-28T00:01:36.526Z,101971.41
2022-10-28T00:04:07.758Z,101972.64
2022-10-28T00:06:37.105Z,101967.66
2022-10-28T00:09:09.678Z,101974.05
2022-10-28T00:11:40.721Z,101976.44
2022-10-28T00:14:13.687Z,101972.78
2022-10-28T00:16:42.030Z,101970.89
2022-10-28T00:19:13.191Z,101970.23
2022-10-28T00:21:43.651Z,101971.16
2022-10-28T00:24:14.653Z,101969.54
2022-10-28T00:26:43.957Z,101965.91
2022-10-28T00:29:14.163Z,101968.69
2022-10-28T00:31:43.230Z,101971.05
2022-10-28T00:34:13.735Z,101965.84
2022-10-28T00:36:43.953Z,101963.89
2022-10-28T00:39:14.349Z,101962.16
2022-10-28T00:41:45.071Z,101959.67
2022-10-28T00:44:47.773Z,101957.88
2022-10-28T00:47:23.891Z,101959.21
2022-10-28T00:49:58.297Z,101953.20
2022-10-28T00:52:30.616Z,101948.73
2022-10-28T00:55:01.657Z,101947.34
2022-10-28T00:57:35.129Z,101944.84
2022-10-28T01:00:06.779Z,101943.09
2022-10-28T01:02:43.300Z,101942.25
2022-10-28T01:05:14.500Z,101937.50
2022-10-28T01:07:44.144Z,101940.52
2022-10-28T01:10:13.420Z,101937.25
2022-10-28T01:12:56.719Z,101933.29
2022-10-28T01:15:37.228Z,101937.91
2022-10-28T01:18:15.826Z,101934.27
2022-10-28T01:21:18.823Z,101938.02
2022-10-28T01:24:01.108Z,101937.54
2022-10-28T01:27:06.024Z,101932.06
2022-10-28T01:30:05.904Z,101925.16
2022-10-28T01:32:45.436Z,101923.87
2022-10-28T01:35:20.986Z,101920.09
2022-10-28T01:37:55.488Z,101918.95
2022-10-28T01:40:31.937Z,101918.59
2022-10-28T01:43:10.765Z,101910.90
2022-10-28T01:45:49.253Z,101909.38
2022-10-28T01:48:22.630Z,101910.94
2022-10-28T01:50:57.835Z,101909.80
2022-10-28T01:53:31.295Z,101913.50
2022-10-28T01:56:04.749Z,101911.53
2022-10-28T01:58:36.439Z,101909.02
2022-10-28T02:01:10.080Z,101911.30
2022-10-28T02:03:38.743Z,101907.48
2022-10-28T02:06:15.365Z,101904.38
2022-10-28T02:09:19.914Z,101898.05
2022-10-28T02:12:03.582Z,101896.95
2022-10-28T02:14:48.119Z,101892.59
2022-10-28T02:17:26.017Z,101886.10
2022-10-28T02:20:07.218Z,101874.90
2022-10-28T02:22:45.841Z,101876.11
2022-10-28T02:25:19.837Z,101875.34
2022-10-28T02:27:55.628Z,101875.10
2022-10-28T02:30:28.366Z,101869.95
2022-10-28T02:33:00.005Z,101864.20
2022-10-28T02:35:33.089Z,101860.20
2022-10-28T02:38:07.598Z,101858.16
2022-10-28T02:40:39.314Z,101859.23
2022-10-28T02:43:11.048Z,101856.98
2022-10-28T02:45:42.986Z,101855.13
2022-10-28T02:48:16.890Z,101858.63
2022-10-28T02:50:54.260Z,101857.20
2022-10-28T02:53:31.034Z,101857.60
2022-10-28T02:56:03.944Z,101850.55
2022-10-28T02:58:39.767Z,101846.38
2022-10-28T03:01:08.383Z,101854.25
2022-10-28T03:03:36.977Z,101847.46
2022-10-28T03:06:05.951Z,101845.49
2022-10-28T03:08:34.729Z,101837.14
2022-10-28T03:11:03.261Z,101834.06
2022-10-28T03:13:31.624Z,101836.36
2022-10-28T03:16:00.043Z,101836.83
2022-10-28T03:18:28.570Z,101836.65
2022-10-28T03:20:59.000Z,101837.16
2022-10-28T03:23:27.775Z,101837.97
2022-10-28T03:26:06.933Z,101836.97
2022-10-28T03:28:35.312Z,101833.83
2022-10-28T03:31:04.550Z,101832.02
2022-10-28T03:33:32.891Z,101829.71
2022-10-28T03:36:01.240Z,101827.11
2022-10-28T03:38:29.990Z,101821.23
2022-10-28T03:40:58.586Z,101825.11
2022-10-28T03:43:26.946Z,101819.45
2022-10-28T03:45:55.611Z,101820.50
2022-10-28T03:48:24.325Z,101816.52
2022-10-28T03:50:56.341Z,101816.00
2022-10-28T03:53:27.724Z,101821.16
2022-10-28T03:55:59.752Z,101819.71
2022-10-28T03:58:29.058Z,101817.98
2022-10-28T04:00:58.206Z,101815.05
2022-10-28T04:03:26.838Z,101813.88
2022-10-28T04:05:55.306Z,101814.86
2022-10-28T04:08:24.004Z,101812.70
2022-10-28T04:10:52.837Z,101813.79
2022-10-28T04:13:26.727Z,101811.15
2022-10-28T04:15:56.007Z,101807.30
2022-10-28T04:18:24.724Z,101802.29
2022-10-28T04:20:53.452Z,101803.45
2022-10-28T04:23:21.975Z,101800.45
2022-10-28T04:25:53.679Z,101802.13
2022-10-28T04:28:23.845Z,101796.84
2022-10-28T04:30:52.960Z,101793.25
2022-10-28T04:33:21.352Z,101792.59
2022-10-28T04:35:49.686Z,101786.23
2022-10-28T04:38:19.279Z,101785.00
2022-10-28T04:40:48.811Z,101778.73
2022-10-28T04:43:17.338Z,101777.72
2022-10-28T04:45:47.087Z,101777.98
2022-10-28T04:48:15.687Z,101775.42
2022-10-28T04:50:44.379Z,101769.96
2022-10-28T04:53:12.926Z,101769.57
2022-10-28T04:55:41.250Z,101768.02
2022-10-28T04:58:10.355Z,101768.09
2022-10-28T05:00:38.723Z,101772.33
2022-10-28T05:03:07.536Z,101767.84
2022-10-28T05:05:35.830Z,101764.74
2022-10-28T05:08:05.254Z,101767.09
2022-10-28T05:10:34.377Z,101772.45
2022-10-28T05:13:02.907Z,101772.14
2022-10-28T05:15:31.196Z,101774.17
2022-10-28T05:17:59.770Z,101769.61
2022-10-28T05:20:28.169Z,101765.71
2022-10-28T05:22:56.687Z,101763.91
2022-10-28T05:25:25.437Z,101762.17
2022-10-28T05:27:57.362Z,101760.41
2022-10-28T05:30:27.508Z,101760.01
2022-10-28T05:33:01.396Z,101757.54
2022-10-28T05:35:30.677Z,101757.77
2022-10-28T05:37:59.195Z,101757.40
2022-10-28T05:40:27.730Z,101751.97
2022-10-28T05:42:56.269Z,101746.54
2022-10-28T05:45:25.199Z,101745.73
2022-10-28T05:47:53.946Z,101744.48
2022-10-28T05:50:22.970Z,101747.52
2022-10-28T05:52:53.402Z,101743.35
2022-10-28T05:55:24.136Z,101744.27
2022-10-28T05:57:53.620Z,101741.66
2022-10-28T06:00:24.229Z,101735.73
2022-10-28T06:02:53.249Z,101737.69
2022-10-28T06:05:22.103Z,101743.05
2022-10-28T06:07:50.530Z,101744.86
2022-10-28T06:10:19.019Z,101745.68
2022-10-28T06:12:46.513Z,101745.80
2022-10-28T06:15:15.233Z,101748.84
2022-10-28T06:17:47.341Z,101747.25
2022-10-28T06:20:17.101Z,101751.01
2022-10-28T06:22:50.378Z,101746.94
2022-10-28T06:25:21.671Z,101746.09
2022-10-28T06:27:53.764Z,101741.27
2022-10-28T06:30:24.304Z,101743.65
2022-10-28T06:32:55.105Z,101746.06
2022-10-28T06:35:23.677Z,101752.88
2022-10-28T06:37:54.381Z,101748.62
2022-10-28T06:40:24.373Z,101748.61
2022-10-28T06:42:58.244Z,101749.45
2022-10-28T06:45:27.211Z,101748.30
2022-10-28T06:47:57.849Z,101746.13
2022-10-28T06:50:27.433Z,101748.56
2022-10-28T06:52:57.272Z,101748.04
2022-10-28T06:55:26.448Z,101758.20
2022-10-28T06:57:58.590Z,101756.70
2022-10-28T07:03:06.812Z,101758.42
2022-10-28T07:05:35.836Z,101759.19
2022-10-28T07:08:04.789Z,101758.67
2022-10-28T07:10:33.170Z,101764.93
2022-10-28T07:13:01.741Z,101764.20
2022-10-28T07:15:30.280Z,101764.93
2022-10-28T07:17:59.716Z,101763.83
2022-10-28T07:20:31.318Z,101762.55
2022-10-28T07:23:02.199Z,101762.48
2022-10-28T07:25:31.641Z,101762.59
2022-10-28T07:28:00.900Z,101757.69
2022-10-28T07:30:38.664Z,101757.48
2022-10-28T07:33:25.374Z,101756.69
2022-10-28T07:35:56.848Z,101747.99
2022-10-28T07:38:25.788Z,101753.32
2022-10-28T07:40:55.333Z,101750.30
2022-10-28T07:43:24.427Z,101743.63
2022-10-28T07:45:56.935Z,101745.48
2022-10-28T07:48:25.543Z,101744.70
2022-10-28T07:50:54.259Z,101742.09
2022-10-28T07:53:24.846Z,101743.83
2022-10-28T07:55:58.062Z,101744.88
2022-10-28T07:58:27.143Z,101742.53
2022-10-28T08:00:55.785Z,101739.95
2022-10-28T08:03:34.539Z,101743.85
2022-10-28T08:06:09.387Z,101737.73
2022-10-28T08:11:36.637Z,101737.34
2022-10-28T08:14:05.711Z,101738.94
2022-10-28T08:16:34.117Z,101742.25
2022-10-28T08:19:07.499Z,101738.27
2022-10-28T08:21:36.233Z,101733.36
2022-10-28T08:24:05.982Z,101730.34
2022-10-28T08:26:34.343Z,101726.80
2022-10-28T08:29:02.735Z,101720.48
2022-10-28T08:31:33.044Z,101719.68
2022-10-28T08:34:01.677Z,101719.31
2022-10-28T08:36:30.152Z,101721.63
2022-10-28T08:38:59.567Z,101716.72
2022-10-28T08:41:37.941Z,101710.88
2022-10-28T08:44:42.270Z,101709.00
2022-10-28T08:47:24.985Z,101706.39
2022-10-28T08:49:57.874Z,101700.64
2022-10-28T08:52:32.617Z,101698.38
2022-10-28T08:55:04.569Z,101703.85
2022-10-28T08:57:38.499Z,101706.92
2022-10-28T09:00:17.053Z,101710.27
2022-10-28T09:02:53.630Z,101713.63
2022-10-28T09:05:23.517Z,101712.13
2022-10-28T09:07:53.220Z,101703.06
2022-10-28T09:10:42.548Z,101700.45
2022-10-28T09:13:19.237Z,101702.32
2022-10-28T09:15:57.018Z,101701.14
2022-10-28T09:18:36.921Z,101700.54
2022-10-28T09:21:13.080Z,101699.94
2022-10-28T09:23:49.339Z,101700.42
2022-10-28T09:26:24.135Z,101697.23
2022-10-28T09:29:00.320Z,101690.47
2022-10-28T09:31:35.404Z,101691.35
2022-10-28T09:34:13.910Z,101689.82
2022-10-28T09:36:47.571Z,101686.94
2022-10-28T09:39:25.324Z,101683.46
2022-10-28T09:42:00.279Z,101678.16
2022-10-28T09:44:38.861Z,101676.23
2022-10-28T09:47:15.701Z,101680.83
2022-10-28T09:49:45.172Z,101681.48
2022-10-28T09:52:21.173Z,101682.91
2022-10-28T09:54:52.300Z,101681.69
2022-10-28T09:57:24.631Z,101679.45
2022-10-28T09:59:54.193Z,101679.10
2022-10-28T10:02:27.758Z,101673.80
2022-10-28T10:04:58.428Z,101666.64
2022-10-28T10:07:33.467Z,101659.14
2022-10-28T10:10:10.222Z,101651.27
2022-10-28T10:12:38.798Z,101644.87
2022-10-28T10:15:15.524Z,101643.32
2022-10-28T10:17:46.978Z,101642.47
2022-10-28T10:20:17.447Z,101640.49
2022-10-28T10:22:48.425Z,101638.09
2022-10-28T10:25:31.453Z,101638.28
2022-10-28T10:28:03.314Z,101634.26
2022-10-28T10:30:34.254Z,101634.89
2022-10-28T10:33:03.433Z,101637.27
2022-10-28T10:35:34.237Z,101638.45
2022-10-28T10:38:05.156Z,101633.09
2022-10-28T10:40:36.816Z,101623.84
2022-10-28T10:43:21.920Z,101614.84
2022-10-28T10:45:58.699Z,101613.55
2022-10-28T10:48:28.307Z,101610.69
2022-10-28T10:51:04.465Z,101607.16
2022-10-28T10:53:34.072Z,101608.27
2022-10-28T10:56:04.501Z,101600.98
2022-10-28T10:58:36.063Z,101592.63
2022-10-28T11:01:07.434Z,101590.90
2022-10-28T11:03:39.296Z,101590.16
2022-10-28T11:06:23.514Z,101586.65
2022-10-28T11:08:58.282Z,101593.63
2022-10-28T11:11:34.524Z,101602.02
2022-10-28T11:14:06.412Z,101605.80
2022-10-28T11:16:48.004Z,101603.64
2022-10-28T11:19:21.506Z,101600.20
2022-10-28T11:22:02.774Z,101607.70
2022-10-28T11:24:51.307Z,101608.64
2022-10-28T11:27:33.641Z,101620.16
2022-10-28T11:30:04.250Z,101632.95
2022-10-28T11:33:01.381Z,101633.73
2022-10-28T11:35:47.348Z,101639.31
2022-10-28T11:38:26.758Z,101639.95
2022-10-28T11:41:12.344Z,101644.80
2022-10-28T11:43:54.597Z,101659.92
2022-10-28T11:46:38.431Z,101671.11
2022-10-28T11:49:36.535Z,101673.48
2022-10-28T11:52:27.624Z,101676.17
2022-10-28T11:55:12.286Z,101680.65
2022-10-28T11:57:51.454Z,101685.52
2022-10-28T12:00:37.573Z,101686.04
2022-10-28T12:03:20.906Z,101696.86
2022-10-28T12:05:54.654Z,101703.67
2022-10-28T12:08:34.763Z,101702.92
2022-10-28T12:11:18.613Z,101704.84
2022-10-28T12:13:57.426Z,101705.38
2022-10-28T12:16:32.598Z,101696.39
2022-10-28T12:19:05.348Z,101684.27
2022-10-28T12:21:37.515Z,101687.53
2022-10-28T12:24:14.089Z,101678.91
2022-10-28T12:26:45.217Z,101664.73
2022-10-28T12:29:18.835Z,101654.79
2022-10-28T12:31:53.406Z,101648.16
2022-10-28T12:34:29.737Z,101641.36
2022-10-28T12:37:02.395Z,101631.34
2022-10-28T12:39:34.972Z,101618.42
2022-10-28T12:42:12.288Z,101613.73
2022-10-28T12:44:41.997Z,101612.27
2022-10-28T12:47:19.219Z,101606.05
2022-10-28T12:50:02.527Z,101600.48
2022-10-28T12:52:42.805Z,101598.92
2022-10-28T12:55:24.031Z,101602.92
2022-10-28T12:58:00.102Z,101598.23
2022-10-28T13:00:32.405Z,101586.35
2022-10-28T13:03:04.177Z,101578.14
2022-10-28T13:05:39.158Z,101576.98
2022-10-28T13:08:25.997Z,101572.02
2022-10-28T13:11:02.571Z,101563.04
2022-10-28T13:13:49.313Z,101560.39
2022-10-28T13:16:40.131Z,101553.59
2022-10-28T13:19:36.507Z,101553.67
2022-10-28T13:25:07.404Z,101544.85
2022-10-28T13:30:18.469Z,101539.39
2022-10-28T13:32:51.173Z,101535.39
2022-10-28T13:35:25.066Z,101519.27
2022-10-28T13:37:56.449Z,101507.46
2022-10-28T13:41:03.235Z,101495.70
2022-10-28T13:43:59.112Z,101495.23
2022-10-28T13:47:14.163Z,101487.61
2022-10-28T13:50:33.130Z,101483.71
2022-10-28T13:53:40.531Z,101474.17
2022-10-28T13:56:30.100Z,101462.70
2022-10-28T13:59:04.811Z,101456.05
2022-10-28T14:02:07.634Z,101457.97
2022-10-28T14:04:53.332Z,101456.80
2022-10-28T14:07:26.260Z,101456.27
2022-10-28T14:09:58.734Z,101453.19
2022-10-28T14:12:30.550Z,101451.82
2022-10-28T14:15:06.880Z,101447.96
2022-10-28T14:17:40.970Z,101457.87
2022-10-28T14:20:28.121Z,101468.06
2022-10-28T14:22:57.185Z,101479.39
2022-10-28T14:25:59.187Z,101486.36
2022-10-28T14:28:53.888Z,101486.64
2022-10-28T14:31:42.991Z,101487.83
2022-10-28T14:34:45.741Z,101487.55
2022-10-28T14:37:57.842Z,101490.78
2022-10-28T14:40:40.006Z,101492.68
2022-10-28T14:43:35.169Z,101491.48
2022-10-28T14:46:19.646Z,101496.80
2022-10-28T14:48:51.317Z,101494.16
2022-10-28T14:51:23.594Z,101487.65
2022-10-28T14:53:58.613Z,101492.25
2022-10-28T14:56:29.140Z,101497.91
2022-10-28T14:59:04.367Z,101493.81
2022-10-28T15:01:50.780Z,101498.05
2022-10-28T15:04:22.202Z,101499.34
2022-10-28T15:06:53.590Z,101500.96
2022-10-28T15:09:25.007Z,101501.83
2022-10-28T15:11:58.387Z,101505.30
2022-10-28T15:14:30.997Z,101502.98
2022-10-28T15:17:04.271Z,101500.77
2022-10-28T15:19:36.046Z,101502.50
2022-10-28T15:22:14.929Z,101512.55
2022-10-28T15:24:53.384Z,101522.31
2022-10-28T15:27:22.858Z,101524.62
2022-10-28T15:29:52.131Z,101521.81
2022-10-28T15:32:29.313Z,101511.48
2022-10-28T15:34:58.533Z,101496.95
2022-10-28T15:37:29.039Z,101487.48
2022-10-28T15:40:19.767Z,101482.97
2022-10-28T15:42:53.743Z,101478.43
2022-10-28T15:45:27.552Z,101468.70
2022-10-28T15:47:58.701Z,101450.27
2022-10-28T15:50:30.776Z,101428.38
2022-10-28T15:53:35.913Z,101407.27
2022-10-28T15:56:24.694Z,101416.27
2022-10-28T15:59:15.546Z,101429.45
2022-10-28T16:01:44.168Z,101441.82
2022-10-28T16:04:50.245Z,101445.52
2022-10-28T16:07:21.015Z,101444.92
2022-10-28T16:09:51.458Z,101440.50
2022-10-28T16:12:25.813Z,101442.67
2022-10-28T16:14:58.364Z,101446.98
2022-10-28T16:17:32.379Z,101449.98
2022-10-28T16:20:04.407Z,101449.88
2022-10-28T16:22:36.711Z,101441.71
2022-10-28T16:25:11.787Z,101439.04
2022-10-28T16:27:40.765Z,101434.95
2022-10-28T16:30:12.207Z,101426.39
2022-10-28T16:32:44.253Z,101424.61
2022-10-28T16:35:16.462Z,101424.23
2022-10-28T16:37:47.376Z,101425.14
2022-10-28T16:40:49.629Z,101423.83
2022-10-28T16:43:10.800Z,101418.62
2022-10-28T16:45:39.218Z,101421.48
2022-10-28T16:48:12.467Z,101418.41
2022-10-28T16:50:42.600Z,101421.61
2022-10-28T16:53:13.937Z,101418.94
2022-10-28T16:55:42.484Z,101420.05
2022-10-28T16:58:11.416Z,101422.48
2022-10-28T17:00:40.607Z,101421.30
2022-10-28T17:03:17.033Z,101423.20
2022-10-28T17:05:45.963Z,101423.95
2022-10-28T17:08:36.122Z,101424.09
2022-10-28T17:11:13.680Z,101419.70
2022-10-28T17:13:42.534Z,101427.13
2022-10-28T17:16:14.354Z,101432.24
2022-10-28T17:18:43.897Z,101433.54
2022-10-28T17:21:12.423Z,101441.47
2022-10-28T17:23:40.956Z,101439.35
2022-10-28T17:26:09.961Z,101437.08
2022-10-28T17:28:40.477Z,101437.25
2022-10-28T17:31:20.444Z,101438.35
2022-10-28T17:33:54.800Z,101441.67
2022-10-28T17:36:23.827Z,101438.96
2022-10-28T17:38:52.482Z,101438.25
2022-10-28T17:41:21.257Z,101437.59
2022-10-28T17:43:53.149Z,101436.92
2022-10-28T17:46:22.139Z,101436.80
2022-10-28T17:48:50.540Z,101435.36
2022-10-28T17:51:20.347Z,101432.61
2022-10-28T17:53:54.352Z,101427.92
2022-10-28T17:56:22.975Z,101424.86
2022-10-28T17:58:53.329Z,101421.13
2022-10-28T18:01:22.361Z,101422.80
2022-10-28T18:03:51.395Z,101419.08
2022-10-28T18:06:20.167Z,101413.23
2022-10-28T18:11:26.674Z,101404.95
2022-10-28T18:13:55.994Z,101405.56
2022-10-28T18:16:27.505Z,101402.17
2022-10-28T18:19:00.029Z,101396.04
2022-10-28T18:21:28.554Z,101390.89
2022-10-28T18:24:02.851Z,101383.63
2022-10-28T18:26:32.639Z,101376.07
2022-10-28T18:29:03.255Z,101373.86
2022-10-28T18:31:34.341Z,101374.38
2022-10-28T18:34:06.724Z,101374.89
2022-10-28T18:36:35.555Z,101366.55
2022-10-28T18:39:07.072Z,101371.17
2022-10-28T18:41:40.779Z,101368.41
2022-10-28T18:44:13.405Z,101367.94
2022-10-28T18:46:44.596Z,101360.24
2022-10-28T18:49:13.920Z,101363.69
2022-10-28T18:51:42.431Z,101359.05
2022-10-28T18:54:10.826Z,101358.85
2022-10-28T18:56:40.260Z,101364.85
2022-10-28T18:59:11.168Z,101372.16
2022-10-28T19:01:45.884Z,101367.52
2022-10-28T19:04:14.857Z,101357.95
2022-10-28T19:06:43.396Z,101353.94
2022-10-28T19:09:13.281Z,101353.98
2022-10-28T19:11:41.853Z,101354.98
2022-10-28T19:14:10.552Z,101354.00
2022-10-28T19:16:39.099Z,101349.64
2022-10-28T19:19:07.861Z,101348.73
2022-10-28T19:21:36.686Z,101343.09
2022-10-28T19:24:06.715Z,101340.55
2022-10-28T19:26:35.966Z,101340.02
2022-10-28T19:29:05.660Z,101339.38
2022-10-28T19:31:38.034Z,101337.98
2022-10-28T19:34:06.581Z,101332.30
2022-10-28T19:36:35.103Z,101333.13
2022-10-28T19:39:04.441Z,101330.63
2022-10-28T19:41:33.306Z,101337.92
2022-10-28T19:44:03.390Z,101343.39
2022-10-28T19:46:34.888Z,101347.13
2022-10-28T19:49:05.522Z,101344.41
2022-10-28T19:51:35.956Z,101340.11
2022-10-28T19:54:07.052Z,101339.88
2022-10-28T19:56:36.446Z,101339.34
2022-10-28T19:59:06.303Z,101335.66
2022-10-28T20:01:37.025Z,101337.05
2022-10-28T20:04:06.815Z,101341.45
2022-10-28T20:06:38.160Z,101337.98
2022-10-28T20:09:06.969Z,101337.17
2022-10-28T20:11:37.458Z,101333.83
2022-10-28T20:14:09.158Z,101334.04
2022-10-28T20:16:41.743Z,101334.63
2022-10-28T20:19:10.637Z,101332.95
2022-10-28T20:21:39.765Z,101331.54
2022-10-28T20:24:08.990Z,101330.38
2022-10-28T20:26:38.918Z,101328.59
2022-10-28T20:29:09.132Z,101327.70
2022-10-28T20:31:38.499Z,101325.70
2022-10-28T20:34:08.035Z,101319.08
2022-10-28T20:36:39.107Z,101326.89
2022-10-28T20:39:12.415Z,101316.30
2022-10-28T20:41:43.120Z,101321.08
2022-10-28T20:44:13.940Z,101319.52
2022-10-28T20:46:44.413Z,101315.14
2022-10-28T20:49:15.497Z,101317.75
2022-10-28T20:51:43.921Z,101315.13
2022-10-28T20:54:12.535Z,101315.38
2022-10-28T20:56:41.650Z,101315.59
2022-10-28T20:59:10.504Z,101316.05
2022-10-28T21:01:42.365Z,101313.92
2022-10-28T21:04:11.732Z,101312.29
2022-10-28T21:06:41.727Z,101311.31
2022-10-28T21:09:11.315Z,101312.02
2022-10-28T21:11:39.799Z,101313.86
2022-10-28T21:14:08.394Z,101309.30
2022-10-28T21:16:37.838Z,101308.02
2022-10-28T21:19:09.308Z,101302.48
2022-10-28T21:21:37.684Z,101304.12
2022-10-28T21:24:07.364Z,101303.07
2022-10-28T21:26:35.686Z,101308.45
2022-10-28T21:29:04.249Z,101313.64
2022-10-28T21:31:32.635Z,101310.84
2022-10-28T21:34:04.395Z,101309.25
2022-10-28T21:36:35.846Z,101311.64
2022-10-28T21:39:04.671Z,101308.08
2022-10-28T21:41:34.115Z,101307.85
2022-10-28T21:44:05.955Z,101304.48
2022-10-28T21:46:34.441Z,101310.33
2022-10-28T21:49:02.819Z,101306.23
2022-10-28T21:51:31.205Z,101306.85
2022-10-28T21:53:59.811Z,101302.88
2022-10-28T21:56:28.154Z,101302.25
2022-10-28T21:58:56.683Z,101296.03
2022-10-28T22:01:25.195Z,101296.95
2022-10-28T22:03:56.032Z,101294.16
2022-10-28T22:06:24.635Z,101297.96
2022-10-28T22:08:53.870Z,101302.92
2022-10-28T22:11:23.764Z,101301.48
2022-10-28T22:13:56.721Z,101298.52
2022-10-28T22:16:29.644Z,101299.31
2022-10-28T22:18:59.705Z,101300.41
2022-10-28T22:21:30.801Z,101300.75
2022-10-28T22:23:59.508Z,101307.77
2022-10-28T22:26:30.041Z,101299.86
2022-10-28T22:28:59.703Z,101299.69
2022-10-28T22:31:30.763Z,101300.40
2022-10-28T22:34:01.903Z,101296.98
2022-10-28T22:36:30.685Z,101297.26
2022-10-28T22:38:59.523Z,101301.71
2022-10-28T22:41:30.107Z,101301.32
2022-10-28T22:44:00.562Z,101297.26
2022-10-28T22:46:35.885Z,101296.52
2022-10-28T22:49:04.612Z,101299.84
2022-10-28T22:51:33.749Z,101299.20
2022-10-28T22:54:02.354Z,101296.77
2022-10-28T22:56:31.252Z,101299.62
2022-10-28T22:59:01.414Z,101296.05
2022-10-28T23:01:30.337Z,101291.20
2022-10-28T23:04:00.363Z,101292.33
2022-10-28T23:06:32.497Z,101282.02
2022-10-28T23:09:01.167Z,101280.39
2022-10-28T23:11:29.966Z,101284.18
2022-10-28T23:13:58.614Z,101282.75
2022-10-28T23:16:27.130Z,101279.03
2022-10-28T23:18:56.061Z,101275.09
2022-10-28T23:21:25.622Z,101274.48
2022-10-28T23:23:55.386Z,101279.92
2022-10-28T23:26:24.879Z,101279.54
2022-10-28T23:28:55.307Z,101284.65
2022-10-28T23:31:24.299Z,101290.27
2022-10-28T23:33:57.576Z,101297.10
2022-10-28T23:36:26.276Z,101295.64
2022-10-28T23:38:57.873Z,101295.61
2022-10-28T23:41:26.805Z,101294.40
2022-10-28T23:43:55.372Z,101293.09
2022-10-28T23:46:24.543Z,101302.70
2022-10-28T23:48:53.266Z,101301.95
2022-10-28T23:51:21.675Z,101301.34
2022-10-28T23:53:50.462Z,101300.59
2022-10-28T23:56:18.962Z,101292.84
2022-10-28T23:58:47.406Z,101291.41
